createdAt,value
2023-03-11T00:00:10.229Z,54.84
2023-03-11T00:01:10.295Z,54.80
2023-03-11T00:02:10.331Z,55.12
2023-03-11T00:03:10.358Z,55.35
2023-03-11T00:04:10.411Z,54.95
2023-03-11T00:05:10.480Z,54.50
2023-03-11T00:06:10.521Z,54.69
2023-03-11T00:07:10.570Z,54.48
2023-03-11T00:08:10.635Z,55.47
2023-03-11T00:09:10.705Z,55.58
2023-03-11T00:10:10.757Z,55.73
2023-03-11T00:11:10.823Z,55.95
2023-03-11T00:12:10.867Z,56.13
2023-03-11T00:13:10.935Z,55.91
2023-03-11T00:14:11.054Z,55.49
2023-03-11T00:15:11.037Z,55.39
2023-03-11T00:16:11.133Z,55.50
2023-03-11T00:17:11.145Z,55.35
2023-03-11T00:18:11.205Z,55.02
2023-03-11T00:19:11.246Z,54.08
2023-03-11T00:20:11.266Z,54.23
2023-03-11T00:21:11.320Z,52.99
2023-03-11T00:22:11.373Z,53.18
2023-03-11T00:23:11.407Z,53.29
2023-03-11T00:24:11.448Z,53.34
2023-03-11T00:25:11.482Z,53.58
2023-03-11T00:26:11.514Z,53.65
2023-03-11T00:27:11.538Z,53.87
2023-03-11T00:28:11.574Z,53.40
2023-03-11T00:29:11.589Z,52.62
2023-03-11T00:30:11.615Z,52.69
2023-03-11T00:31:11.674Z,53.04
2023-03-11T00:32:11.677Z,53.36
2023-03-11T00:33:11.697Z,53.82
2023-03-11T00:34:11.700Z,54.36
2023-03-11T00:35:11.754Z,54.52
2023-03-11T00:36:11.863Z,54.77
2023-03-11T00:37:11.916Z,54.51
2023-03-11T00:38:12.755Z,54.61
2023-03-11T00:39:12.020Z,54.60
2023-03-11T00:40:12.060Z,54.14
2023-03-11T00:41:12.106Z,53.96
2023-03-11T00:42:12.147Z,53.92
2023-03-11T00:43:12.201Z,53.96
2023-03-11T00:44:12.225Z,54.20
2023-03-11T00:45:12.285Z,54.06
2023-03-11T00:46:12.362Z,53.87
2023-03-11T00:47:12.394Z,53.94
2023-03-11T00:48:12.454Z,54.05
2023-03-11T00:49:12.511Z,53.72
2023-03-11T00:50:12.570Z,52.75
2023-03-11T00:51:12.720Z,52.54
2023-03-11T00:52:12.684Z,51.91
2023-03-11T00:53:12.736Z,52.58
2023-03-11T00:54:12.778Z,53.23
2023-03-11T00:55:12.805Z,53.34
2023-03-11T00:56:12.844Z,53.42
2023-03-11T00:57:12.856Z,53.35
2023-03-11T00:58:12.944Z,53.30
2023-03-11T00:59:12.984Z,52.95
2023-03-11T01:00:13.008Z,52.95
2023-03-11T01:01:13.049Z,53.39
2023-03-11T01:02:13.040Z,53.21
2023-03-11T01:03:13.052Z,53.01
2023-03-11T01:04:13.124Z,52.89
2023-03-11T01:05:13.100Z,52.99
2023-03-11T01:06:13.107Z,52.97
2023-03-11T01:07:13.139Z,52.71
2023-03-11T01:08:13.151Z,51.88
2023-03-11T01:09:13.183Z,51.83
2023-03-11T01:10:13.215Z,52.13
2023-03-11T01:11:13.231Z,52.27
2023-03-11T01:12:13.276Z,52.19
2023-03-11T01:13:13.310Z,52.25
2023-03-11T01:14:13.455Z,52.05
2023-03-11T01:15:13.373Z,52.20
2023-03-11T01:16:13.503Z,52.35
2023-03-11T01:17:13.417Z,52.32
2023-03-11T01:18:13.448Z,52.41
2023-03-11T01:19:13.447Z,52.43
2023-03-11T01:20:13.491Z,52.67
2023-03-11T01:21:13.489Z,51.97
2023-03-11T01:22:13.518Z,52.27
2023-03-11T01:23:13.561Z,51.95
2023-03-11T01:24:13.550Z,51.79
2023-03-11T01:25:13.597Z,51.55
2023-03-11T01:26:13.665Z,51.03
2023-03-11T01:27:13.840Z,50.89
2023-03-11T01:28:14.009Z,50.58
2023-03-11T01:29:14.156Z,50.98
2023-03-11T01:30:14.333Z,51.02
2023-03-11T01:31:14.509Z,51.44
2023-03-11T01:32:14.691Z,51.72
2023-03-11T01:33:14.786Z,51.96
2023-03-11T01:34:14.953Z,51.72
2023-03-11T01:35:15.092Z,52.24
2023-03-11T01:58:19.263Z,50.41
2023-03-11T01:59:19.096Z,50.43
2023-03-11T02:00:19.250Z,48.89
2023-03-11T02:01:19.385Z,48.92
2023-03-11T02:02:19.418Z,49.45
2023-03-11T02:03:19.548Z,49.56
2023-03-11T02:04:19.511Z,49.85
2023-03-11T02:05:19.553Z,49.80
2023-03-11T02:06:19.594Z,49.95
2023-03-11T02:07:19.634Z,50.25
2023-03-11T02:08:19.684Z,50.43
2023-03-11T02:09:19.714Z,50.40
2023-03-11T02:10:19.765Z,50.51
2023-03-11T02:11:19.778Z,50.73
2023-03-11T02:12:19.818Z,50.64
2023-03-11T02:13:19.860Z,50.63
2023-03-11T02:14:19.887Z,49.97
2023-03-11T02:15:19.932Z,50.24
2023-03-11T02:16:20.004Z,50.31
2023-03-11T02:17:20.024Z,48.43
2023-03-11T02:18:20.061Z,48.59
2023-03-11T02:19:20.111Z,48.62
2023-03-11T02:20:20.156Z,47.99
2023-03-11T02:21:20.220Z,48.29
2023-03-11T02:22:20.290Z,48.75
2023-03-11T02:23:20.351Z,47.60
2023-03-11T02:24:20.403Z,47.63
2023-03-11T02:26:20.491Z,47.23
2023-03-11T02:27:20.546Z,47.58
2023-03-11T02:28:20.565Z,47.80
2023-03-11T02:29:20.632Z,47.26
2023-03-11T02:30:20.661Z,47.79
2023-03-11T02:31:20.687Z,48.11
2023-03-11T02:32:20.786Z,48.04
2023-03-11T02:33:20.735Z,47.98
2023-03-11T05:20:28.963Z,48.71
2023-03-11T05:21:29.016Z,48.85
2023-03-11T05:22:29.078Z,48.57
2023-03-11T05:23:29.116Z,48.39
2023-03-11T05:24:29.145Z,48.09
2023-03-11T05:25:29.171Z,48.03
2023-03-11T05:26:29.193Z,48.34
2023-03-11T05:27:29.198Z,49.21
2023-03-11T05:28:29.218Z,49.50
2023-03-11T05:29:29.247Z,49.49
2023-03-11T05:30:29.273Z,49.67
2023-03-11T05:31:29.395Z,49.67
2023-03-11T05:32:29.352Z,49.70
2023-03-11T05:33:29.323Z,49.41
2023-03-11T05:34:29.343Z,49.61
2023-03-11T05:35:29.368Z,50.41
2023-03-11T05:36:29.416Z,50.28
2023-03-11T05:37:29.472Z,50.07
2023-03-11T05:38:29.537Z,49.50
2023-03-11T05:39:29.606Z,49.67
2023-03-11T05:40:29.657Z,49.63
2023-03-11T05:41:29.717Z,50.00
2023-03-11T05:42:29.772Z,49.84
2023-03-11T05:43:29.887Z,49.84
2023-03-11T05:44:29.875Z,49.66
2023-03-11T05:45:29.898Z,49.66
2023-03-11T05:46:29.990Z,49.90
2023-03-11T05:47:29.970Z,49.50
2023-03-11T05:48:30.027Z,49.94
2023-03-11T05:49:30.055Z,50.32
2023-03-11T05:50:30.077Z,50.21
2023-03-11T05:51:30.111Z,50.47
2023-03-11T05:52:30.195Z,50.26
2023-03-11T05:53:30.233Z,50.19
2023-03-11T05:54:30.254Z,50.59
2023-03-11T05:55:30.287Z,50.50
2023-03-11T05:56:30.335Z,49.99
2023-03-11T05:57:30.388Z,49.86
2023-03-11T05:58:30.476Z,49.70
2023-03-11T05:59:30.502Z,49.81
2023-03-11T06:00:30.537Z,50.32
2023-03-11T06:01:30.614Z,50.90
2023-03-11T06:02:30.703Z,50.84
2023-03-11T06:03:30.807Z,50.52
2023-03-11T06:04:31.033Z,50.49
2023-03-11T06:05:30.975Z,50.60
2023-03-11T06:06:31.033Z,50.70
2023-03-11T06:07:31.171Z,50.51
2023-03-11T06:08:31.148Z,50.26
2023-03-11T06:09:31.213Z,49.92
2023-03-11T06:10:31.309Z,50.14
2023-03-11T06:11:31.415Z,50.26
2023-03-11T06:12:31.493Z,50.20
2023-03-11T06:13:31.576Z,50.46
2023-03-11T06:14:31.690Z,50.38
2023-03-11T06:15:31.769Z,50.41
2023-03-11T06:16:31.889Z,50.37
2023-03-11T06:17:31.945Z,50.29
2023-03-11T06:18:32.019Z,50.15
2023-03-11T06:19:32.087Z,50.24
2023-03-11T06:20:32.151Z,49.71
2023-03-11T06:21:32.221Z,49.91
2023-03-11T06:22:32.281Z,49.77
2023-03-11T06:23:32.396Z,49.94
2023-03-11T06:24:32.368Z,49.78
2023-03-11T06:25:32.424Z,49.75
2023-03-11T06:26:32.471Z,49.49
2023-03-11T06:27:32.527Z,49.26
2023-03-11T06:28:32.569Z,49.04
2023-03-11T06:29:32.619Z,48.88
2023-03-11T06:30:32.663Z,48.66
2023-03-11T06:31:32.796Z,48.65
2023-03-11T06:32:32.784Z,48.89
2023-03-11T06:33:32.791Z,49.00
2023-03-11T06:34:32.815Z,49.22
2023-03-11T06:35:32.890Z,49.28
2023-03-11T06:36:32.867Z,49.12
2023-03-11T06:37:32.879Z,49.12
2023-03-11T06:38:32.903Z,49.24
2023-03-11T06:39:32.944Z,48.54
2023-03-11T06:40:33.006Z,48.64
2023-03-11T06:41:33.110Z,48.63
2023-03-11T06:42:33.193Z,48.87
2023-03-11T06:44:33.372Z,48.85
2023-03-11T06:45:33.472Z,48.63
2023-03-11T06:46:33.495Z,48.30
2023-03-11T06:47:33.573Z,48.20
2023-03-11T06:48:33.661Z,48.21
2023-03-11T08:11:39.120Z,43.47
2023-03-11T08:12:39.247Z,43.63
2023-03-11T08:13:39.559Z,43.63
2023-03-11T08:14:39.736Z,43.56
2023-03-11T08:15:39.897Z,43.87
2023-03-11T08:16:40.033Z,43.93
2023-03-11T08:17:40.300Z,44.09
2023-03-11T08:18:40.442Z,44.17
2023-03-11T08:19:40.701Z,43.41
2023-03-11T08:20:40.854Z,43.16
2023-03-11T08:21:41.073Z,43.23
2023-03-11T08:22:55.616Z,42.90
2023-03-11T08:23:42.280Z,42.83
2023-03-11T08:24:41.206Z,42.43
2023-03-11T08:25:41.182Z,42.36
2023-03-11T08:26:41.181Z,42.29
2023-03-11T08:27:41.158Z,42.46
2023-03-11T08:28:41.148Z,42.55
2023-03-11T08:29:41.136Z,42.60
2023-03-11T08:30:42.097Z,42.21
2023-03-11T08:31:41.107Z,42.65
2023-03-11T08:32:41.147Z,42.80
2023-03-11T08:33:41.207Z,42.60
2023-03-11T08:34:41.390Z,42.88
2023-03-11T08:35:41.590Z,42.76
2023-03-11T08:36:41.817Z,43.14
2023-03-11T08:37:42.043Z,43.64
2023-03-11T08:38:42.257Z,43.39
2023-03-11T08:39:42.400Z,43.72
2023-03-11T08:40:42.556Z,43.73
2023-03-11T08:41:42.743Z,43.98
2023-03-11T08:42:43.831Z,43.78
2023-03-11T08:43:42.935Z,43.81
2023-03-11T08:44:42.930Z,44.17
2023-03-11T08:45:42.958Z,44.25
2023-03-11T08:46:43.002Z,44.49
2023-03-11T08:47:42.950Z,44.83
2023-03-11T08:48:42.960Z,45.06
2023-03-11T08:49:42.963Z,45.17
2023-03-11T08:50:53.396Z,45.07
2023-03-11T08:51:43.942Z,44.88
2023-03-11T08:52:42.919Z,44.93
2023-03-11T08:53:42.909Z,44.83
2023-03-11T08:54:42.882Z,44.35
2023-03-11T08:55:42.858Z,44.38
2023-03-11T08:56:42.856Z,44.39
2023-03-11T08:57:42.852Z,44.53
2023-03-11T08:58:42.850Z,44.48
2023-03-11T08:59:42.828Z,44.32
2023-03-11T09:00:42.811Z,44.40
2023-03-11T09:01:42.788Z,44.43
2023-03-11T09:02:42.838Z,44.41
2023-03-11T09:03:42.774Z,44.21
2023-03-11T09:04:42.762Z,44.31
2023-03-11T09:05:42.827Z,44.77
2023-03-11T09:06:42.868Z,44.70
2023-03-11T09:07:42.911Z,44.48
2023-03-11T09:08:42.966Z,44.54
2023-03-11T09:09:43.027Z,44.57
2023-03-11T09:10:43.070Z,44.61
2023-03-11T09:11:43.107Z,44.47
2023-03-11T09:12:43.171Z,44.62
2023-03-11T09:13:43.238Z,44.77
2023-03-11T09:14:43.253Z,44.64
2023-03-11T09:15:43.289Z,44.51
2023-03-11T09:16:43.321Z,44.56
2023-03-11T09:17:43.333Z,44.77
2023-03-11T09:18:43.345Z,45.25
2023-03-11T09:19:43.383Z,45.46
2023-03-11T09:20:43.427Z,45.34
2023-03-11T09:21:43.448Z,45.49
2023-03-11T09:22:43.481Z,45.28
2023-03-11T09:23:44.548Z,45.34
2023-03-11T09:24:43.599Z,45.04
2023-03-11T09:25:43.626Z,44.35
2023-03-11T09:26:43.700Z,44.26
2023-03-11T09:27:43.751Z,44.19
2023-03-11T09:28:43.818Z,44.48
2023-03-11T09:29:43.889Z,44.92
2023-03-11T09:30:43.948Z,44.34
2023-03-11T09:31:44.096Z,44.10
2023-03-11T09:32:44.101Z,44.36
2023-03-11T09:33:44.127Z,44.35
2023-03-11T09:34:44.180Z,43.97
2023-03-11T09:35:44.264Z,44.03
2023-03-11T09:36:44.263Z,43.86
2023-03-11T09:37:44.290Z,44.04
2023-03-11T09:38:44.327Z,43.83
2023-03-11T09:39:44.339Z,43.24
2023-03-11T09:40:46.873Z,42.99
2023-03-11T09:41:57.146Z,42.99
2023-03-11T09:42:45.509Z,43.08
2023-03-11T09:43:44.497Z,42.68
2023-03-11T09:45:44.464Z,43.08
2023-03-11T09:46:44.527Z,43.29
2023-03-11T09:47:44.423Z,43.42
2023-03-11T09:48:44.401Z,43.46
2023-03-11T09:49:44.381Z,43.58
2023-03-11T09:50:44.359Z,43.55
2023-03-11T09:51:44.337Z,44.08
2023-03-11T11:32:49.052Z,38.69
2023-03-11T11:33:49.113Z,38.62
2023-03-11T11:34:49.370Z,38.51
2023-03-11T11:35:49.547Z,39.01
2023-03-11T11:36:49.649Z,39.26
2023-03-11T11:37:49.813Z,39.40
2023-03-11T11:38:50.072Z,39.73
2023-03-11T11:39:50.273Z,39.43
2023-03-11T11:40:50.481Z,38.25
2023-03-11T11:41:50.674Z,38.11
2023-03-11T11:42:50.891Z,38.31
2023-03-11T11:43:51.084Z,38.30
2023-03-11T11:44:51.296Z,38.24
2023-03-11T11:45:51.558Z,38.47
2023-03-11T11:46:51.641Z,38.32
2023-03-11T11:47:51.741Z,38.19
2023-03-11T11:48:51.897Z,37.72
2023-03-11T11:49:52.035Z,37.97
2023-03-11T11:50:52.196Z,38.47
2023-03-11T11:51:52.320Z,38.09
2023-03-11T11:52:52.508Z,38.23
2023-03-11T11:53:52.639Z,38.44
2023-03-11T11:54:52.803Z,38.05
2023-03-11T11:55:53.035Z,37.88
2023-03-11T11:56:53.221Z,37.33
2023-03-11T11:57:53.420Z,36.97
2023-03-11T11:58:53.573Z,36.85
2023-03-11T11:59:54.010Z,36.79
2023-03-11T12:00:53.662Z,36.95
2023-03-11T12:01:53.734Z,37.01
2023-03-11T12:02:53.798Z,37.01
2023-03-11T12:03:53.902Z,37.43
2023-03-11T12:04:53.913Z,37.85
2023-03-11T12:05:56.131Z,38.07
2023-03-11T12:06:54.000Z,37.78
2023-03-11T12:07:53.996Z,37.16
2023-03-11T12:08:54.017Z,37.19
2023-03-11T12:09:54.019Z,37.37
2023-03-11T12:10:54.015Z,37.83
2023-03-11T12:11:53.998Z,37.42
2023-03-11T12:12:54.015Z,37.42
2023-03-11T12:13:54.031Z,37.66
2023-03-11T12:14:54.045Z,38.31
2023-03-11T12:15:54.072Z,37.58
2023-03-11T12:16:54.061Z,37.38
2023-03-11T12:17:54.062Z,37.75
2023-03-11T12:18:54.070Z,37.39
2023-03-11T12:19:54.087Z,37.88
2023-03-11T12:20:54.096Z,38.22
2023-03-11T12:21:54.261Z,38.45
2023-03-11T12:22:54.091Z,38.27
2023-03-11T12:23:55.149Z,37.74
2023-03-11T12:24:54.105Z,38.07
2023-03-11T12:25:54.117Z,38.43
2023-03-11T12:26:54.134Z,38.44
2023-03-11T12:27:54.133Z,38.44
2023-03-11T12:28:54.132Z,38.86
2023-03-11T12:29:54.127Z,38.44
2023-03-11T12:30:54.149Z,38.26
2023-03-11T12:31:54.155Z,37.93
2023-03-11T12:32:54.280Z,38.59
2023-03-11T12:33:54.151Z,38.87
2023-03-11T12:34:54.138Z,38.88
2023-03-11T12:35:54.146Z,38.68
2023-03-11T12:36:54.141Z,38.79
2023-03-11T12:37:54.113Z,38.58
2023-03-11T12:38:54.120Z,38.45
2023-03-11T12:39:54.111Z,37.95
2023-03-11T12:40:54.115Z,38.30
2023-03-11T12:41:54.122Z,38.66
2023-03-11T12:42:54.108Z,38.91
2023-03-11T12:43:54.100Z,39.06
2023-03-11T12:44:54.122Z,38.46
2023-03-11T12:45:54.119Z,38.71
2023-03-11T12:46:54.199Z,38.03
2023-03-11T12:47:54.131Z,38.33
2023-03-11T12:48:54.132Z,38.24
2023-03-11T12:49:54.139Z,38.46
2023-03-11T12:50:54.164Z,38.31
2023-03-11T12:51:54.174Z,38.43
2023-03-11T12:52:54.221Z,38.34
2023-03-11T12:53:54.226Z,38.69
2023-03-11T12:54:54.273Z,38.14
2023-03-11T12:55:54.322Z,37.76
2023-03-11T12:56:54.376Z,37.79
2023-03-11T12:57:54.447Z,37.90
2023-03-11T12:58:54.501Z,38.31
2023-03-11T12:59:54.578Z,38.31
2023-03-11T13:00:54.658Z,38.04
2023-03-11T13:01:54.800Z,38.11
2023-03-11T13:02:54.820Z,38.29
2023-03-11T13:03:54.849Z,38.36
2023-03-11T13:04:54.915Z,37.95
2023-03-11T13:05:54.972Z,37.62
2023-03-11T13:06:55.003Z,37.62
2023-03-11T13:07:55.053Z,37.60
2023-03-11T13:08:55.206Z,37.85
2023-03-11T13:09:55.390Z,38.08
2023-03-11T13:10:55.562Z,37.94
2023-03-11T13:11:55.737Z,37.99
2023-03-11T13:12:55.841Z,37.68
2023-03-11T13:13:55.920Z,37.83
2023-03-11T13:14:55.968Z,37.66
2023-03-11T13:15:56.049Z,37.85
2023-03-11T13:16:56.066Z,38.08
2023-03-11T13:17:56.122Z,38.34
2023-03-11T13:18:56.159Z,38.68
2023-03-11T13:19:56.228Z,38.82
2023-03-11T13:20:56.299Z,38.39
2023-03-11T13:21:56.328Z,38.64
2023-03-11T13:22:56.345Z,38.88
2023-03-11T13:23:56.386Z,38.61
2023-03-11T13:24:56.435Z,39.09
2023-03-11T13:25:56.503Z,38.73
2023-03-11T13:26:56.555Z,38.63
2023-03-11T13:27:56.595Z,38.54
2023-03-11T13:28:56.641Z,38.38
2023-03-11T13:29:56.679Z,38.32
2023-03-11T13:30:56.746Z,38.22
2023-03-11T13:31:56.781Z,38.17
2023-03-11T13:32:56.828Z,38.44
2023-03-11T13:33:56.846Z,38.50
2023-03-11T13:34:56.882Z,38.69
2023-03-11T13:35:56.995Z,38.46
2023-03-11T13:36:57.026Z,38.26
2023-03-11T14:22:59.075Z,38.37
2023-03-11T14:23:59.326Z,38.26
2023-03-11T14:24:59.431Z,38.31
2023-03-11T14:25:59.623Z,38.42
2023-03-11T14:26:59.791Z,38.26
2023-03-11T14:28:00.001Z,38.13
2023-03-11T14:29:00.177Z,38.41
2023-03-11T14:30:00.340Z,38.42
2023-03-11T14:31:00.496Z,38.19
2023-03-11T14:32:00.790Z,38.03
2023-03-11T18:46:08.980Z,53.57
2023-03-11T19:00:08.952Z,56.11
2023-03-11T19:01:09.062Z,56.34
2023-03-11T19:02:09.110Z,56.38
2023-03-11T19:03:09.157Z,56.37
2023-03-11T19:04:09.192Z,56.46
2023-03-11T19:05:09.376Z,56.81
2023-03-11T19:06:09.309Z,56.64
2023-03-11T19:07:09.367Z,56.99
2023-03-11T19:08:09.448Z,57.00
2023-03-11T19:09:09.534Z,57.22
2023-03-11T19:10:09.640Z,57.50
2023-03-11T19:11:09.750Z,57.70
2023-03-11T19:12:09.847Z,57.87
2023-03-11T19:13:09.957Z,58.26
2023-03-11T19:14:10.068Z,58.51
2023-03-11T19:15:10.160Z,58.56
2023-03-11T19:16:10.283Z,58.73
2023-03-11T19:17:10.439Z,59.04
2023-03-11T19:18:10.504Z,59.29
2023-03-11T19:19:11.947Z,59.28
2023-03-11T19:20:10.686Z,59.37
2023-03-11T19:21:10.831Z,59.70
2023-03-11T19:22:10.884Z,59.47
2023-03-11T19:23:10.947Z,59.74
2023-03-11T19:24:11.037Z,60.13
2023-03-11T19:25:11.108Z,60.18
2023-03-11T19:26:11.200Z,60.42
2023-03-11T19:27:11.220Z,60.48
2023-03-11T19:28:11.321Z,60.37
2023-03-11T19:29:11.424Z,60.39
2023-03-11T19:30:11.481Z,60.52
2023-03-11T19:31:11.596Z,60.29
2023-03-11T19:32:11.587Z,60.45
2023-03-11T19:33:11.671Z,60.54
2023-03-11T19:34:11.745Z,60.48
2023-03-11T19:35:11.822Z,60.48
2023-03-11T19:36:11.961Z,60.67
2023-03-11T19:37:12.029Z,60.51
2023-03-11T19:38:12.103Z,60.66
2023-03-11T19:39:12.210Z,60.80
2023-03-11T19:40:12.308Z,60.80
2023-03-11T19:42:12.479Z,61.04
2023-03-11T20:20:19.062Z,61.51
2023-03-11T20:21:19.272Z,61.51
2023-03-11T20:22:19.481Z,61.47
2023-03-11T20:23:19.624Z,61.77
2023-03-11T20:24:19.892Z,61.88
2023-03-11T20:25:20.033Z,61.96
2023-03-11T20:26:20.159Z,62.07
2023-03-11T20:27:20.281Z,62.21
2023-03-11T20:28:20.293Z,62.09
2023-03-11T20:29:20.353Z,62.04
2023-03-11T20:30:20.428Z,61.84
2023-03-11T20:31:20.545Z,61.67
2023-03-11T20:32:20.468Z,61.62
2023-03-11T20:33:20.511Z,61.56
2023-03-11T20:34:20.636Z,61.51
2023-03-11T20:35:20.600Z,61.59
2023-03-11T20:36:20.689Z,61.68
2023-03-11T20:37:20.656Z,61.61
2023-03-11T20:38:20.774Z,61.65
2023-03-11T20:39:20.795Z,61.85
2023-03-11T20:40:20.900Z,61.93
2023-03-11T20:41:20.874Z,61.87
2023-03-11T20:42:20.991Z,61.95
2023-03-11T20:43:21.080Z,62.28
2023-03-11T20:44:21.190Z,62.49
2023-03-11T20:45:21.312Z,62.56
2023-03-11T20:46:21.360Z,62.37
2023-03-11T20:47:21.529Z,62.60
2023-03-11T20:48:21.505Z,62.73
2023-03-11T20:49:21.699Z,62.56
2023-03-11T20:50:21.796Z,62.60
2023-03-11T20:51:21.830Z,62.66
2023-03-11T20:52:21.906Z,62.54
2023-03-11T20:53:21.945Z,62.52
2023-03-11T20:54:22.039Z,62.49
2023-03-11T20:55:22.061Z,62.30
2023-03-11T20:56:22.102Z,62.46
2023-03-11T20:57:22.211Z,62.32
2023-03-11T20:58:22.304Z,62.21
2023-03-11T20:59:22.378Z,62.16
2023-03-11T21:00:22.434Z,62.11
2023-03-11T21:01:22.695Z,62.04
2023-03-11T21:02:22.676Z,62.22
2023-03-11T21:03:22.765Z,62.12
2023-03-11T21:04:22.742Z,62.03
2023-03-11T21:05:22.835Z,62.09
2023-03-11T21:06:22.957Z,62.14
2023-03-11T21:07:23.079Z,61.92
2023-03-11T21:08:23.113Z,61.78
2023-03-11T21:09:23.267Z,61.62
2023-03-11T21:10:23.290Z,61.64
2023-03-11T21:11:23.470Z,61.42
2023-03-11T21:12:23.523Z,61.44
2023-03-11T21:13:23.685Z,61.35
2023-03-11T21:14:23.725Z,61.28
2023-03-11T21:15:23.813Z,61.11
2023-03-11T21:16:24.037Z,61.10
2023-03-11T21:17:24.047Z,61.13
2023-03-11T21:18:24.126Z,61.18
2023-03-11T21:19:24.283Z,61.03
2023-03-11T21:20:24.322Z,61.59
2023-03-11T21:21:24.320Z,61.25
2023-03-11T21:22:24.403Z,61.49
2023-03-11T21:23:24.464Z,61.52
2023-03-11T21:24:24.612Z,61.49
2023-03-11T21:25:24.695Z,61.68
2023-03-11T21:26:24.728Z,61.43
2023-03-11T21:27:24.849Z,61.46
2023-03-11T21:28:24.870Z,61.18
2023-03-11T21:34:25.422Z,60.83
2023-03-11T21:36:25.732Z,60.77
2023-03-11T22:16:29.047Z,61.39
2023-03-11T22:17:29.232Z,61.55
2023-03-11T22:18:29.296Z,61.45
2023-03-11T22:19:29.329Z,61.32
2023-03-11T22:20:29.330Z,61.39
2023-03-11T22:21:29.548Z,61.33
2023-03-11T22:22:29.469Z,61.43
2023-03-11T22:23:29.547Z,61.44
2023-03-11T22:24:29.649Z,61.27
2023-03-11T22:25:29.726Z,61.09
2023-03-11T22:26:29.821Z,61.12
2023-03-11T22:27:29.918Z,61.32
2023-03-11T22:28:29.988Z,61.12
2023-03-11T22:29:30.082Z,60.94
2023-03-11T22:30:30.177Z,60.95
2023-03-11T22:31:30.321Z,60.89
2023-03-11T22:32:30.392Z,61.16
2023-03-11T22:33:30.436Z,61.06
2023-03-11T22:34:30.522Z,61.11
2023-03-11T22:35:30.650Z,61.41
2023-03-11T22:36:30.682Z,61.31
2023-03-11T22:37:30.774Z,61.27
2023-03-11T22:38:30.863Z,61.21
2023-03-11T22:39:30.994Z,61.12
2023-03-11T22:40:31.054Z,60.88
2023-03-11T22:41:31.163Z,60.91
2023-03-11T22:42:31.281Z,60.73
2023-03-11T22:43:31.371Z,60.90
2023-03-11T22:44:31.473Z,61.29
2023-03-11T22:45:31.542Z,61.28
2023-03-11T22:46:31.621Z,61.22
2023-03-11T22:47:31.701Z,61.24
2023-03-11T22:48:31.789Z,61.35
2023-03-11T22:49:31.876Z,61.47
2023-03-11T22:50:31.991Z,61.19
2023-03-11T22:51:32.053Z,61.45
2023-03-11T22:52:32.128Z,61.38
2023-03-11T22:53:32.211Z,61.94
2023-03-11T22:54:32.328Z,61.75
2023-03-11T22:55:32.361Z,61.85
2023-03-11T22:56:32.440Z,61.93
2023-03-11T22:57:32.544Z,61.85
2023-03-11T22:59:32.660Z,61.59
2023-03-11T23:00:32.749Z,61.55
2023-03-11T23:01:32.906Z,61.69
2023-03-11T23:02:32.923Z,61.57
2023-03-11T23:03:33.109Z,61.71
2023-03-11T23:04:33.076Z,61.68
2023-03-11T23:05:33.149Z,61.80
2023-03-11T23:06:33.221Z,61.54
2023-03-11T23:07:33.302Z,61.78
2023-03-11T23:08:33.375Z,61.67
2023-03-11T23:09:33.451Z,61.63
2023-03-11T23:10:33.529Z,61.54
2023-03-11T23:11:33.603Z,61.41
2023-03-11T23:12:33.707Z,61.45
2023-03-11T23:13:33.791Z,61.40
2023-03-11T23:14:44.040Z,61.66
2023-03-11T23:15:34.910Z,61.68
2023-03-11T23:16:33.980Z,61.54
2023-03-11T23:17:34.028Z,61.61
2023-03-11T23:18:34.002Z,61.40
2023-03-11T23:19:34.036Z,61.51
2023-03-11T23:20:34.063Z,61.47
2023-03-11T23:21:34.120Z,61.28
2023-03-11T23:22:34.144Z,61.05
2023-03-11T23:23:34.188Z,61.19
2023-03-11T23:24:34.257Z,61.36
2023-03-11T23:25:34.296Z,61.51
2023-03-11T23:26:34.363Z,61.33
2023-03-11T23:27:34.463Z,61.32
2023-03-11T23:28:34.548Z,61.60
2023-03-11T23:29:34.626Z,61.48
2023-03-11T23:30:34.757Z,61.35
2023-03-11T23:31:34.799Z,61.30
2023-03-11T23:32:34.915Z,61.57
2023-03-11T23:33:34.978Z,61.65
2023-03-11T23:34:35.056Z,61.32
2023-03-11T23:35:35.166Z,61.44
2023-03-11T23:36:35.223Z,61.54
2023-03-11T23:37:35.304Z,61.39
2023-03-11T23:38:35.395Z,61.34
2023-03-11T23:39:35.465Z,61.32
2023-03-11T23:40:35.570Z,61.30
2023-03-11T23:41:35.645Z,61.23
2023-03-11T23:42:35.727Z,61.21
2023-03-11T23:43:35.819Z,61.32
2023-03-11T23:44:35.929Z,61.26
2023-03-11T23:45:35.999Z,61.18
2023-03-11T23:46:36.110Z,61.20
2023-03-11T23:47:36.176Z,61.37
2023-03-11T23:48:36.256Z,61.12
2023-03-11T23:49:36.344Z,61.39
2023-03-11T23:50:36.416Z,61.39
2023-03-11T23:51:36.523Z,61.72
2023-03-11T23:52:36.614Z,61.58
2023-03-11T23:53:36.696Z,61.42
2023-03-11T23:54:36.795Z,61.26
2023-03-11T23:55:36.893Z,61.28
2023-03-11T23:57:37.086Z,61.43
2023-03-11T23:58:37.174Z,61.75
2023-03-11T23:59:37.257Z,61.68
